Terminal Aerodrome Forecast
Issued by NWS

Home | Current Version | Previous Version | Text Only | Print | Product List | Glossary On
Versions: 1 2 3 4 5 6 7 8 9 10 11 12 13 14 15 16 17 18 19 20 21 22 23 24 25 26 27 28
000
FTUS45 KBOU 302323
TAFAPA
TAF
KAPA 302323Z 3100/3124 04010KT P6SM FEW100 SCT220
     FM310200 09012KT P6SM SCT100 BKN150
     FM310400 15009KT P6SM SCT100 BKN150
     FM310500 18010KT P6SM SCT150 BKN200
     FM310900 21007KT P6SM FEW150 SCT200
     FM311400 25007KT P6SM FEW150 BKN200
     FM311800 36007KT P6SM SCT100 BKN200 PROB30 3121/3124 VRB20G30KT
      -TSRA BKN080CB=

USA.gov is the U.S. government's official web portal to all federal, state and local government web resources and services.